Time;durP1;ratioP1;P1;durP2;ratioP2;P2;SDS_P1;SDS_P2;PMS_P1;PMS_P2;Temp;Humidity;BMP_temperature;BMP_pressure;BME280_temperature;BME280_humidity;BME280_pressure;Samples;Min_cycle;Max_cycle;Signal;HPM_P1;HPM_P2
2023/12/01 00:01:22;;;;;;;7.75;4.18;;;;;;;;;;5127234;27;20057;-71
2023/12/01 00:03:48;;;;;;;6.00;3.90;;;;;;;;;;5127635;27;20031;-70
2023/12/01 00:06:13;;;;;;;7.43;3.97;;;;;;;;;;5108701;27;20063;-70
2023/12/01 00:08:39;;;;;;;8.75;3.92;;;;;;;;;;5128109;27;20512;-70
2023/12/01 00:11:04;;;;;;;8.07;4.10;;;;;;;;;;5127363;27;20034;-70
2023/12/01 00:13:29;;;;;;;7.85;4.05;;;;;;;;;;5129001;27;20050;-70
2023/12/01 00:15:55;;;;;;;7.97;4.30;;;;;;;;;;5129281;27;20039;-70
2023/12/01 00:18:20;;;;;;;6.82;4.07;;;;;;;;;;5124681;27;20310;-70
2023/12/01 00:20:45;;;;;;;7.47;4.43;;;;;;;;;;5127770;27;20027;-70
2023/12/01 00:23:11;;;;;;;7.53;3.73;;;;;;;;;;5125676;27;20023;-70
2023/12/01 00:25:36;;;;;;;6.53;4.10;;;;;;;;;;5126045;27;20263;-70
2023/12/01 00:28:02;;;;;;;9.13;4.07;;;;;;;;;;5109041;28;20034;-74
2023/12/01 00:30:29;;;;;;;9.77;4.35;;;;;;;;;;5109092;28;20079;-75
2023/12/01 00:32:56;;;;;;;9.73;4.32;;;;;;;;;;5129870;27;20035;-75
2023/12/01 00:35:21;;;;;;;8.05;4.60;;;;;;;;;;5128357;27;20043;-74
2023/12/01 00:37:47;;;;;;;7.53;4.75;;;;;;;;;;5111132;28;20054;-75
2023/12/01 00:40:12;;;;;;;7.57;4.18;;;;;;;;;;5127505;27;20027;-74
2023/12/01 00:42:38;;;;;;;8.98;4.45;;;;;;;;;;5130390;27;20027;-74
2023/12/01 00:45:03;;;;;;;7.72;3.95;;;;;;;;;;5129239;27;20042;-74
2023/12/01 00:47:28;;;;;;;7.07;3.70;;;;;;;;;;5094928;28;20023;-73
2023/12/01 00:49:54;;;;;;;7.75;3.92;;;;;;;;;;5107887;27;20039;-74
2023/12/01 00:52:19;;;;;;;7.40;3.95;;;;;;;;;;5128294;27;20034;-74
2023/12/01 00:54:44;;;;;;;6.75;4.05;;;;;;;;;;5128393;27;20023;-74
2023/12/01 00:57:10;;;;;;;8.40;3.67;;;;;;;;;;5127861;27;20032;-74
2023/12/01 00:59:35;;;;;;;9.63;3.83;;;;;;;;;;5125977;27;20035;-74
2023/12/01 01:02:00;;;;;;;5.88;3.47;;;;;;;;;;5111484;27;20442;-73
2023/12/01 01:04:29;;;;;;;11.10;4.27;;;;;;;;;;5129341;27;20823;-72
2023/12/01 01:06:54;;;;;;;11.00;3.95;;;;;;;;;;5137655;27;20267;-70
2023/12/01 01:09:19;;;;;;;7.40;3.73;;;;;;;;;;5134688;27;20052;-69
2023/12/01 01:11:45;;;;;;;6.70;3.95;;;;;;;;;;5135184;27;20318;-70
2023/12/01 01:14:10;;;;;;;8.80;3.90;;;;;;;;;;5134542;27;20142;-69
2023/12/01 01:16:35;;;;;;;7.90;3.70;;;;;;;;;;5119024;27;20022;-69
2023/12/01 01:19:01;;;;;;;7.82;4.40;;;;;;;;;;5116582;27;20359;-69
2023/12/01 01:21:26;;;;;;;8.10;3.97;;;;;;;;;;5129265;27;20050;-70
2023/12/01 01:23:51;;;;;;;5.93;3.63;;;;;;;;;;5130014;27;20041;-70
2023/12/01 01:26:17;;;;;;;6.80;3.97;;;;;;;;;;5128339;27;20610;-69
2023/12/01 01:28:42;;;;;;;5.57;3.78;;;;;;;;;;5121529;27;20023;-70
2023/12/01 01:31:08;;;;;;;6.80;3.53;;;;;;;;;;5122193;27;20139;-72
2023/12/01 01:33:33;;;;;;;10.40;3.80;;;;;;;;;;5129630;27;20270;-70
2023/12/01 01:35:58;;;;;;;6.82;4.00;;;;;;;;;;5131408;27;20076;-69
2023/12/01 01:38:24;;;;;;;6.10;3.83;;;;;;;;;;5126456;27;20031;-71
2023/12/01 01:40:49;;;;;;;6.40;4.05;;;;;;;;;;5133983;27;20019;-70
2023/12/01 01:43:24;;;;;;;7.10;3.70;;;;;;;;;;5131292;27;20054;-70
2023/12/01 01:46:09;;;;;;;5.97;3.80;;;;;;;;;;5132969;27;20030;-70
2023/12/01 01:48:35;;;;;;;6.55;3.90;;;;;;;;;;5129263;27;20034;-69
2023/12/01 01:51:00;;;;;;;6.22;3.50;;;;;;;;;;5128970;27;20015;-69
2023/12/01 01:53:27;;;;;;;7.07;4.03;;;;;;;;;;5113406;27;20027;-70
2023/12/01 01:55:52;;;;;;;7.22;3.55;;;;;;;;;;5128179;27;20046;-69
2023/12/01 01:58:17;;;;;;;7.75;3.95;;;;;;;;;;5112274;27;20024;-70
2023/12/01 02:00:49;;;;;;;6.40;3.53;;;;;;;;;;5129346;27;20031;-70
2023/12/01 02:03:15;;;;;;;6.18;3.60;;;;;;;;;;5129507;27;20062;-70
2023/12/01 02:05:40;;;;;;;4.97;3.50;;;;;;;;;;5113049;27;20051;-70
2023/12/01 02:08:20;;;;;;;5.50;3.47;;;;;;;;;;5128940;27;20110;-70
2023/12/01 02:10:46;;;;;;;7.20;3.78;;;;;;;;;;5128139;27;20023;-70
2023/12/01 02:13:14;;;;;;;7.07;3.83;;;;;;;;;;5130095;27;20049;-69
2023/12/01 02:15:40;;;;;;;6.90;3.50;;;;;;;;;;5112529;27;20027;-70
2023/12/01 02:18:17;;;;;;;5.18;3.00;;;;;;;;;;5114958;27;21019;-70
2023/12/01 02:20:42;;;;;;;7.82;3.65;;;;;;;;;;5134032;27;20038;-71
2023/12/01 02:23:08;;;;;;;7.40;3.80;;;;;;;;;;5132600;27;20106;-70
2023/12/01 02:25:33;;;;;;;6.75;3.13;;;;;;;;;;5130611;27;20027;-71
2023/12/01 02:28:00;;;;;;;10.32;3.67;;;;;;;;;;5110630;27;20042;-71
2023/12/01 02:30:25;;;;;;;6.93;3.63;;;;;;;;;;5130017;27;20426;-71
2023/12/01 02:32:51;;;;;;;6.67;3.23;;;;;;;;;;5128818;27;20034;-71
2023/12/01 02:35:16;;;;;;;6.72;3.40;;;;;;;;;;5128979;27;20320;-72
2023/12/01 02:37:41;;;;;;;5.37;3.20;;;;;;;;;;5130295;27;20055;-71
2023/12/01 02:40:14;;;;;;;5.23;3.30;;;;;;;;;;5127923;27;20281;-71
2023/12/01 02:42:44;;;;;;;5.88;3.35;;;;;;;;;;5129612;27;20277;-75
2023/12/01 02:45:09;;;;;;;;;;;;;;;;;;5110452;27;20596;-75
2023/12/01 02:47:34;;;;;;;7.17;3.33;;;;;;;;;;5131411;27;20034;-75
2023/12/01 02:50:00;;;;;;;5.53;3.30;;;;;;;;;;5130687;27;20039;-75
2023/12/01 02:52:25;;;;;;;5.78;3.53;;;;;;;;;;5134083;27;20025;-75
2023/12/01 02:54:50;;;;;;;6.95;3.60;;;;;;;;;;5111960;27;20118;-75
2023/12/01 02:57:16;;;;;;;5.57;3.25;;;;;;;;;;5114218;27;20022;-75
2023/12/01 02:59:41;;;;;;;5.78;3.10;;;;;;;;;;5112127;27;20034;-74
2023/12/01 03:02:06;;;;;;;5.35;3.15;;;;;;;;;;5130138;27;20030;-75
2023/12/01 03:04:32;;;;;;;6.38;3.40;;;;;;;;;;5128199;27;20030;-74
2023/12/01 03:06:57;;;;;;;5.40;3.23;;;;;;;;;;5111558;27;20046;-74
2023/12/01 03:09:22;;;;;;;10.23;3.50;;;;;;;;;;5111893;27;20271;-76
2023/12/01 03:11:48;;;;;;;8.77;3.60;;;;;;;;;;5124637;27;20342;-75
2023/12/01 03:14:22;;;;;;;4.88;2.70;;;;;;;;;;5128569;27;20607;-72
2023/12/01 03:16:47;;;;;;;5.18;2.88;;;;;;;;;;5131157;27;20141;-75
2023/12/01 03:19:12;;;;;;;5.18;3.17;;;;;;;;;;5130105;27;20565;-75
2023/12/01 03:21:41;;;;;;;4.75;3.00;;;;;;;;;;5128577;27;20484;-72
2023/12/01 03:24:09;;;;;;;5.32;2.97;;;;;;;;;;5112638;27;20143;-74
2023/12/01 03:26:36;;;;;;;7.72;3.20;;;;;;;;;;5134346;27;20106;-75
2023/12/01 03:29:02;;;;;;;6.20;3.30;;;;;;;;;;5130337;27;20027;-75
2023/12/01 03:31:30;;;;;;;6.47;3.35;;;;;;;;;;5108594;27;20388;-72
2023/12/01 03:33:59;;;;;;;4.72;3.25;;;;;;;;;;5111160;27;20042;-73
2023/12/01 03:36:25;;;;;;;8.60;3.17;;;;;;;;;;5130802;27;20027;-70
2023/12/01 03:38:50;;;;;;;6.63;3.22;;;;;;;;;;5131404;27;20058;-70
2023/12/01 03:41:15;;;;;;;4.67;2.77;;;;;;;;;;5121042;27;20023;-70
2023/12/01 03:43:41;;;;;;;4.70;3.28;;;;;;;;;;5111683;27;20295;-70
2023/12/01 03:46:06;;;;;;;5.20;3.00;;;;;;;;;;5128495;27;20110;-71
2023/12/01 03:48:33;;;;;;;5.47;2.67;;;;;;;;;;5127622;27;20783;-71
2023/12/01 03:50:58;;;;;;;7.15;3.30;;;;;;;;;;5110558;27;20042;-71
2023/12/01 03:53:23;;;;;;;5.43;2.92;;;;;;;;;;5101448;27;20023;-70
2023/12/01 03:55:49;;;;;;;5.13;3.00;;;;;;;;;;5110764;27;20070;-70
2023/12/01 03:58:14;;;;;;;5.40;3.10;;;;;;;;;;5125747;27;20271;-70
2023/12/01 04:00:39;;;;;;;5.27;3.10;;;;;;;;;;5111814;27;20098;-70
2023/12/01 04:03:05;;;;;;;4.65;2.90;;;;;;;;;;5124074;27;20731;-71
2023/12/01 04:05:30;;;;;;;5.88;3.25;;;;;;;;;;5128067;27;20027;-71
2023/12/01 04:07:56;;;;;;;5.82;3.17;;;;;;;;;;5127713;27;20381;-70
2023/12/01 04:10:21;;;;;;;5.25;2.95;;;;;;;;;;5128946;27;20023;-71
2023/12/01 04:12:46;;;;;;;6.68;3.88;;;;;;;;;;5108116;28;20038;-71
2023/12/01 04:15:13;;;;;;;5.85;3.30;;;;;;;;;;5130772;27;20035;-71
2023/12/01 04:17:42;;;;;;;4.32;3.08;;;;;;;;;;5126130;27;20020;-72
2023/12/01 04:20:20;;;;;;;6.50;2.78;;;;;;;;;;5121317;27;20070;-70
2023/12/01 04:22:47;;;;;;;5.68;2.95;;;;;;;;;;5137337;27;20027;-71
2023/12/01 04:25:12;;;;;;;5.18;2.65;;;;;;;;;;5137078;27;20035;-70
2023/12/01 04:27:38;;;;;;;5.38;3.03;;;;;;;;;;5124756;28;20018;-71
2023/12/01 04:30:03;;;;;;;5.27;3.03;;;;;;;;;;5139694;27;20027;-70
2023/12/01 04:32:29;;;;;;;4.90;3.10;;;;;;;;;;5114599;27;20366;-72
2023/12/01 04:34:54;;;;;;;8.00;3.20;;;;;;;;;;5127314;27;20033;-72
2023/12/01 04:37:19;;;;;;;7.47;3.03;;;;;;;;;;5125677;28;20459;-71
2023/12/01 04:39:44;;;;;;;9.40;3.13;;;;;;;;;;5126629;27;20287;-72
2023/12/01 04:42:10;;;;;;;6.00;3.17;;;;;;;;;;5127227;27;20015;-71
2023/12/01 04:44:35;;;;;;;4.97;2.80;;;;;;;;;;5133188;27;20167;-71
2023/12/01 04:47:00;;;;;;;5.10;3.00;;;;;;;;;;5109505;28;20264;-70
2023/12/01 04:49:26;;;;;;;5.68;2.88;;;;;;;;;;5115833;27;20283;-70
2023/12/01 04:51:51;;;;;;;5.13;2.90;;;;;;;;;;5108980;28;20031;-70
2023/12/01 04:54:16;;;;;;;5.90;3.10;;;;;;;;;;5128888;27;20033;-69
2023/12/01 04:56:42;;;;;;;4.90;2.87;;;;;;;;;;5127776;27;20282;-69
2023/12/01 04:59:07;;;;;;;6.80;2.92;;;;;;;;;;5109969;27;20335;-70
2023/12/01 05:01:35;;;;;;;4.73;2.60;;;;;;;;;;5129741;27;20053;-70
2023/12/01 05:04:01;;;;;;;4.65;2.83;;;;;;;;;;5130551;27;20271;-71
2023/12/01 05:06:26;;;;;;;4.55;2.95;;;;;;;;;;5130753;27;20023;-70
2023/12/01 05:08:51;;;;;;;4.30;3.00;;;;;;;;;;5132092;27;20445;-70
2023/12/01 05:11:16;;;;;;;5.57;2.53;;;;;;;;;;5131201;27;20274;-70
2023/12/01 05:13:42;;;;;;;4.77;2.90;;;;;;;;;;5112656;27;20271;-70
2023/12/01 05:16:07;;;;;;;4.88;2.63;;;;;;;;;;5129741;27;20282;-70
2023/12/01 05:18:32;;;;;;;5.45;2.80;;;;;;;;;;5128672;27;20040;-70
2023/12/01 05:20:58;;;;;;;5.10;2.70;;;;;;;;;;5112595;27;20135;-70
2023/12/01 05:23:23;;;;;;;4.30;2.87;;;;;;;;;;5128182;27;20271;-70
2023/12/01 05:25:50;;;;;;;7.22;3.00;;;;;;;;;;5128222;27;20286;-70
2023/12/01 05:28:16;;;;;;;6.10;2.88;;;;;;;;;;5112668;27;20034;-69
2023/12/01 05:30:43;;;;;;;4.20;2.75;;;;;;;;;;5131588;27;20015;-71
2023/12/01 05:33:09;;;;;;;4.45;2.67;;;;;;;;;;5136540;27;20142;-70
2023/12/01 05:35:35;;;;;;;5.22;2.53;;;;;;;;;;5133009;27;20047;-70
2023/12/01 05:38:04;;;;;;;8.40;2.92;;;;;;;;;;5112302;27;20516;-71
2023/12/01 05:40:30;;;;;;;6.05;2.90;;;;;;;;;;5132203;27;20060;-70
2023/12/01 05:42:56;;;;;;;3.92;2.55;;;;;;;;;;5130609;27;20027;-70
2023/12/01 05:45:22;;;;;;;4.25;2.95;;;;;;;;;;5129118;27;20045;-71
2023/12/01 05:47:49;;;;;;;4.13;2.72;;;;;;;;;;5112809;27;20039;-68
2023/12/01 05:50:21;;;;;;;5.53;2.70;;;;;;;;;;5114242;27;20027;-70
2023/12/01 05:52:47;;;;;;;5.00;2.97;;;;;;;;;;5132290;27;20014;-71
2023/12/01 05:55:16;;;;;;;4.45;2.90;;;;;;;;;;5129736;27;20392;-70
2023/12/01 05:57:45;;;;;;;5.88;3.00;;;;;;;;;;5111585;27;20035;-71
2023/12/01 06:00:12;;;;;;;4.68;2.85;;;;;;;;;;5129057;27;20031;-71
2023/12/01 06:02:41;;;;;;;6.13;2.67;;;;;;;;;;5121792;27;20587;-71
2023/12/01 06:05:07;;;;;;;4.72;2.70;;;;;;;;;;5129112;27;20442;-70
2023/12/01 06:07:32;;;;;;;9.35;3.08;;;;;;;;;;5130336;27;20027;-71
2023/12/01 06:09:58;;;;;;;4.47;2.38;;;;;;;;;;5113249;27;20027;-71
2023/12/01 06:12:23;;;;;;;5.82;3.05;;;;;;;;;;5130100;27;20023;-69
2023/12/01 06:14:49;;;;;;;5.70;2.57;;;;;;;;;;5128676;27;20026;-69
2023/12/01 06:17:14;;;;;;;12.90;2.95;;;;;;;;;;5110146;27;20391;-70
2023/12/01 06:19:40;;;;;;;3.13;2.45;;;;;;;;;;5112093;27;20043;-69
2023/12/01 06:22:05;;;;;;;3.75;2.10;;;;;;;;;;5115562;27;20074;-69
2023/12/01 06:24:33;;;;;;;4.87;2.67;;;;;;;;;;5133653;27;20042;-69
2023/12/01 06:27:00;;;;;;;3.90;2.40;;;;;;;;;;5128491;27;20407;-69
2023/12/01 06:29:25;;;;;;;4.63;2.60;;;;;;;;;;5128756;27;20019;-69
2023/12/01 06:31:50;;;;;;;6.80;2.65;;;;;;;;;;5131331;27;20035;-69
2023/12/01 06:34:15;;;;;;;7.37;2.60;;;;;;;;;;5128459;27;20046;-68
2023/12/01 06:36:41;;;;;;;7.85;2.55;;;;;;;;;;5110922;27;20068;-69
2023/12/01 06:39:10;;;;;;;5.90;2.80;;;;;;;;;;5127343;27;20027;-68
2023/12/01 06:41:36;;;;;;;4.45;3.00;;;;;;;;;;5129151;27;20027;-69
2023/12/01 06:44:01;;;;;;;4.97;2.85;;;;;;;;;;5128058;27;20035;-69
2023/12/01 06:46:27;;;;;;;4.67;2.47;;;;;;;;;;5129477;27;20434;-69
2023/12/01 06:48:53;;;;;;;4.20;2.50;;;;;;;;;;5130503;27;20274;-68
2023/12/01 06:51:18;;;;;;;5.63;3.05;;;;;;;;;;5128565;27;20636;-69
2023/12/01 06:53:43;;;;;;;6.18;3.05;;;;;;;;;;5130410;27;20440;-69
2023/12/01 06:56:09;;;;;;;4.55;2.55;;;;;;;;;;5127594;27;20381;-69
2023/12/01 06:58:34;;;;;;;4.82;2.83;;;;;;;;;;5130789;27;20023;-69
2023/12/01 07:01:00;;;;;;;3.85;2.88;;;;;;;;;;5127397;27;20023;-69
2023/12/01 07:03:25;;;;;;;5.28;2.72;;;;;;;;;;5126454;27;20038;-70
2023/12/01 07:05:52;;;;;;;6.85;2.75;;;;;;;;;;5127684;27;20110;-69
2023/12/01 07:08:17;;;;;;;6.18;3.00;;;;;;;;;;5109526;27;20139;-68
2023/12/01 07:10:43;;;;;;;6.65;2.95;;;;;;;;;;5127104;27;20043;-68
2023/12/01 07:13:08;;;;;;;4.40;2.63;;;;;;;;;;5128918;27;20099;-70
2023/12/01 07:15:33;;;;;;;6.75;2.80;;;;;;;;;;5128349;27;20036;-71
2023/12/01 07:17:59;;;;;;;4.03;2.40;;;;;;;;;;5111666;27;20511;-70
2023/12/01 07:20:24;;;;;;;5.72;3.05;;;;;;;;;;5127950;27;20286;-70
2023/12/01 07:22:51;;;;;;;5.90;2.70;;;;;;;;;;5107428;27;20020;-69
2023/12/01 07:25:23;;;;;;;4.22;2.55;;;;;;;;;;5126151;27;20023;-70
2023/12/01 07:27:52;;;;;;;6.50;2.78;;;;;;;;;;5111580;27;20438;-70
2023/12/01 07:30:18;;;;;;;4.50;2.80;;;;;;;;;;5124424;27;20035;-70
2023/12/01 07:32:46;;;;;;;3.05;2.30;;;;;;;;;;5123162;27;20042;-69
2023/12/01 07:35:12;;;;;;;5.95;2.97;;;;;;;;;;5112034;27;20620;-68
2023/12/01 07:37:38;;;;;;;6.55;2.47;;;;;;;;;;5129610;27;20052;-71
2023/12/01 07:40:06;;;;;;;4.88;2.38;;;;;;;;;;5137099;27;20027;-70
2023/12/01 07:42:31;;;;;;;4.18;2.55;;;;;;;;;;5139002;27;20034;-69
2023/12/01 07:44:57;;;;;;;4.47;2.58;;;;;;;;;;5124173;27;20035;-70
2023/12/01 07:47:24;;;;;;;4.70;2.10;;;;;;;;;;5142693;27;20030;-70
2023/12/01 07:49:49;;;;;;;6.60;2.63;;;;;;;;;;5142371;27;20019;-71
2023/12/01 07:52:15;;;;;;;4.55;2.53;;;;;;;;;;5140689;27;20127;-72
2023/12/01 07:54:40;;;;;;;3.30;2.35;;;;;;;;;;5111863;27;20027;-71
2023/12/01 07:57:05;;;;;;;5.37;2.73;;;;;;;;;;5115592;27;20023;-73
2023/12/01 07:59:31;;;;;;;5.72;2.70;;;;;;;;;;5137357;27;20355;-74
2023/12/01 08:01:57;;;;;;;5.18;2.50;;;;;;;;;;5115939;27;20031;-74
2023/12/01 08:04:22;;;;;;;3.83;2.28;;;;;;;;;;5134676;27;20037;-72
2023/12/01 08:06:48;;;;;;;5.93;2.58;;;;;;;;;;5137887;27;20035;-73
2023/12/01 08:09:16;;;;;;;4.85;2.67;;;;;;;;;;5136099;27;20143;-74
2023/12/01 08:11:42;;;;;;;2.93;2.27;;;;;;;;;;5133841;27;20031;-74
2023/12/01 08:14:08;;;;;;;3.88;2.20;;;;;;;;;;5115149;27;20028;-72
2023/12/01 08:16:33;;;;;;;5.25;2.38;;;;;;;;;;5130994;27;20042;-72
2023/12/01 08:18:58;;;;;;;5.25;2.22;;;;;;;;;;5116989;27;20103;-73
2023/12/01 08:21:24;;;;;;;7.40;2.30;;;;;;;;;;5117852;27;20023;-74
2023/12/01 08:23:49;;;;;;;3.53;2.40;;;;;;;;;;5131663;28;20812;-72
2023/12/01 08:26:15;;;;;;;3.80;2.50;;;;;;;;;;5135093;27;20649;-73
2023/12/01 08:28:40;;;;;;;5.18;2.50;;;;;;;;;;5118191;28;20032;-73
2023/12/01 08:31:06;;;;;;;4.47;2.42;;;;;;;;;;5136545;27;20027;-73
2023/12/01 08:33:31;;;;;;;5.05;2.30;;;;;;;;;;5138562;27;20025;-73
2023/12/01 08:35:56;;;;;;;6.65;2.67;;;;;;;;;;5143035;27;20026;-73
2023/12/01 08:38:22;;;;;;;5.82;2.30;;;;;;;;;;5143822;27;20076;-74
2023/12/01 08:40:47;;;;;;;5.63;2.50;;;;;;;;;;5134387;27;20119;-73
2023/12/01 08:43:12;;;;;;;4.10;2.25;;;;;;;;;;5130285;27;20275;-73
2023/12/01 08:45:38;;;;;;;4.90;2.17;;;;;;;;;;5127042;27;20023;-74
2023/12/01 08:48:03;;;;;;;4.72;2.58;;;;;;;;;;5128101;27;20026;-73
2023/12/01 08:50:29;;;;;;;5.40;2.70;;;;;;;;;;5131883;27;20469;-74
2023/12/01 08:52:54;;;;;;;8.70;2.50;;;;;;;;;;5112243;27;20077;-74
2023/12/01 08:55:19;;;;;;;3.87;2.40;;;;;;;;;;5133193;27;20130;-73
2023/12/01 08:57:45;;;;;;;10.80;2.60;;;;;;;;;;5130814;27;20924;-71
2023/12/01 09:00:12;;;;;;;3.15;2.10;;;;;;;;;;5129932;27;20035;-72
2023/12/01 09:02:37;;;;;;;5.60;2.80;;;;;;;;;;5131101;27;20030;-72
2023/12/01 09:05:04;;;;;;;3.13;2.10;;;;;;;;;;5113405;27;20030;-72
2023/12/01 09:07:29;;;;;;;5.38;2.55;;;;;;;;;;5127021;27;20019;-71
2023/12/01 09:09:54;;;;;;;5.20;2.65;;;;;;;;;;5125949;27;20041;-71
2023/12/01 09:12:20;;;;;;;5.80;2.50;;;;;;;;;;5130815;27;20445;-70
2023/12/01 09:14:45;;;;;;;4.65;2.60;;;;;;;;;;5113098;27;20323;-72
2023/12/01 09:17:10;;;;;;;4.97;2.47;;;;;;;;;;5130150;27;20066;-71
2023/12/01 09:19:36;;;;;;;4.25;2.30;;;;;;;;;;5130102;27;20375;-72
2023/12/01 09:22:01;;;;;;;6.63;2.40;;;;;;;;;;5128176;27;20100;-72
2023/12/01 09:24:26;;;;;;;6.60;2.30;;;;;;;13.45;nan;99142.16;5126568;27;20271;-72
2023/12/01 09:26:52;;;;;;;3.50;2.30;;;;;;;;;;5119974;27;20271;-75
2023/12/01 09:29:18;;;;;;;4.35;2.10;;;;;;;;;;5135913;27;20030;-73
2023/12/01 09:31:47;;;;;;;4.53;2.20;;;;;;;;;;5125698;27;20038;-73
2023/12/01 09:34:12;;;;;;;4.63;2.38;;;;;;;;;;5137726;27;20036;-72
2023/12/01 09:36:38;;;;;;;5.40;2.13;;;;;;;;;;5114723;27;20388;-72
2023/12/01 09:39:04;;;;;;;6.30;2.53;;;;;;;;;;5134532;27;20030;-73
2023/12/01 09:41:29;;;;;;;3.22;2.10;;;;;;;;;;5116346;27;20047;-73
2023/12/01 09:43:55;;;;;;;4.60;2.47;;;;;;;;;;5114422;27;20031;-73
2023/12/01 09:46:22;;;;;;;4.35;2.50;;;;;;;;;;5118433;27;20034;-73
2023/12/01 09:48:47;;;;;;;3.58;2.10;;;;;;;;;;5136688;27;20457;-73
2023/12/01 09:51:12;;;;;;;19.10;2.43;;;;;;;;;;5142072;27;20033;-73
2023/12/01 09:53:38;;;;;;;4.28;2.30;;;;;;;;;;5137404;27;20271;-73
2023/12/01 09:56:05;;;;;;;3.95;2.40;;;;;;;13.86;nan;99157.75;5140076;27;20124;-74
2023/12/01 09:58:31;;;;;;;3.28;2.20;;;;;;;;;;5141615;27;20031;-74
2023/12/01 10:00:56;;;;;;;4.85;2.88;;;;;;;;;;5120733;27;20032;-73
2023/12/01 10:03:22;;;;;;;4.95;2.30;;;;;;;;;;5119257;27;20034;-72
2023/12/01 10:05:47;;;;;;;5.18;2.78;;;;;;;;;;5134166;27;20631;-73
2023/12/01 10:08:13;;;;;;;4.18;2.13;;;;;;;;;;5123055;27;20030;-73
2023/12/01 10:10:38;;;;;;;6.68;2.80;;;;;;;;;;5119700;27;20162;-73
2023/12/01 10:13:04;;;;;;;6.53;2.45;;;;;;;;;;5137772;27;20020;-72
2023/12/01 10:15:30;;;;;;;3.58;2.20;;;;;;;;;;5141794;27;20457;-73
2023/12/01 10:18:08;;;;;;;4.75;2.50;;;;;;;;;;5120004;27;20079;-73
2023/12/01 10:20:35;;;;;;;8.50;2.60;;;;;;;;;;5115519;27;20116;-74
2023/12/01 10:23:02;;;;;;;5.80;3.08;;;;;;;;;;5110565;27;20114;-72
2023/12/01 10:25:27;;;;;;;5.97;2.45;;;;;;;;;;5105993;27;20039;-73
2023/12/01 10:27:55;;;;;;;3.88;2.60;;;;;;;;;;5101495;27;20413;-73
2023/12/01 10:30:20;;;;;;;4.38;3.00;;;;;;;;;;5105092;27;20038;-74
2023/12/01 10:32:47;;;;;;;6.43;2.88;;;;;;;;;;5116340;27;20023;-72
2023/12/01 10:35:13;;;;;;;7.15;2.53;;;;;;;13.98;nan;99112.38;5111145;28;20042;-72
2023/12/01 10:37:38;;;;;;;3.83;2.42;;;;;;;;;;5117600;27;20027;-72
2023/12/01 10:40:08;;;;;;;4.88;2.90;;;;;;;;;;5109053;27;20024;-74
2023/12/01 10:42:34;;;;;;;6.22;2.80;;;;;;;;;;5104266;27;20028;-72
2023/12/01 10:45:03;;;;;;;5.35;3.05;;;;;;;;;;5108990;28;20038;-73
2023/12/01 10:47:28;;;;;;;4.45;2.53;;;;;;;;;;5116080;27;20024;-75
2023/12/01 10:49:57;;;;;;;4.78;3.00;;;;;;;;;;5110396;28;20047;-72
2023/12/01 10:52:23;;;;;;;4.75;2.40;;;;;;;;;;5108700;28;20027;-68
2023/12/01 10:54:49;;;;;;;4.47;2.80;;;;;;;;;;5112015;27;20030;-73
2023/12/01 10:57:23;;;;;;;4.65;2.33;;;;;;;;;;5110178;27;20035;-73
2023/12/01 10:59:52;;;;;;;5.30;2.63;;;;;;;;;;5107400;27;20136;-73
2023/12/01 11:02:18;;;;;;;4.45;2.80;;;;;;;;;;5109066;28;20032;-73
2023/12/01 11:04:44;;;;;;;6.40;2.95;;;;;;;;;;5109698;28;20036;-73
2023/12/01 11:07:21;;;;;;;4.88;2.47;;;;;;;;;;5103453;27;20034;-74
2023/12/01 11:10:00;;;;;;;3.67;2.60;;;;;;;14.28;nan;99057.56;5105392;27;20127;-72
2023/12/01 11:12:38;;;;;;;7.88;2.75;;;;;;;;;;5106321;27;20035;-72
2023/12/01 11:15:24;;;;;;;5.47;2.88;;;;;;;;;;5111320;27;20125;-73
2023/12/01 11:17:50;;;;;;;5.80;2.80;;;;;;;;;;5117487;27;21001;-73
2023/12/01 11:20:32;;;;;;;7.00;3.08;;;;;;;;;;5117522;27;20120;-73
2023/12/01 11:23:06;;;;;;;7.03;2.85;;;;;;;;;;5137198;27;20019;-73
2023/12/01 11:25:43;;;;;;;4.30;2.80;;;;;;;14.75;nan;99053.31;5123744;27;20038;-74
2023/12/01 11:28:20;;;;;;;4.78;2.70;;;;;;;;;;5136736;27;20047;-73
2023/12/01 11:31:08;;;;;;;6.80;3.20;;;;;;;;;;5136490;27;20047;-75
2023/12/01 11:33:44;;;;;;;4.90;2.50;;;;;;;;;;5126932;27;20055;-73
2023/12/01 11:36:29;;;;;;;4.93;2.58;;;;;;;;;;5108692;27;20046;-69
2023/12/01 11:39:27;;;;;;;4.70;2.47;;;;;;;;;;5128262;27;20414;-69
2023/12/01 11:42:09;;;;;;;8.48;2.90;;;;;;;;;;5125166;27;20074;-73
2023/12/01 11:44:37;;;;;;;4.93;2.50;;;;;;;;;;5111727;27;20527;-73
2023/12/01 11:47:04;;;;;;;6.97;2.85;;;;;;;;;;5107158;27;20037;-74
2023/12/01 11:49:31;;;;;;;5.45;2.70;;;;;;;;;;5109649;27;20019;-73
2023/12/01 11:51:56;;;;;;;4.50;2.75;;;;;;;;;;5132540;27;20084;-73
2023/12/01 11:54:22;;;;;;;4.53;2.33;;;;;;;;;;5126807;27;20027;-73
2023/12/01 11:56:49;;;;;;;6.28;3.20;;;;;;;;;;5112098;27;20027;-69
2023/12/01 11:59:15;;;;;;;5.65;3.05;;;;;;;;;;5122941;27;20034;-68
2023/12/01 12:01:40;;;;;;;8.15;3.22;;;;;;;;;;5105866;27;20039;-74
2023/12/01 12:04:07;;;;;;;4.53;2.88;;;;;;;;;;5126244;27;20023;-74
2023/12/01 12:06:32;;;;;;;6.10;3.00;;;;;;;;;;5128578;27;20030;-70
2023/12/01 12:08:59;;;;;;;5.80;2.80;;;;;;;;;;5101959;28;20465;-73
2023/12/01 12:11:24;;;;;;;6.97;2.80;;;;;;;;;;5127534;27;20023;-73
2023/12/01 12:13:53;;;;;;;3.97;2.60;;;;;;;;;;5127746;27;20038;-72
2023/12/01 12:16:20;;;;;;;4.70;2.70;;;;;;;;;;5127678;27;20015;-74
2023/12/01 12:18:46;;;;;;;6.25;2.60;;;;;;;;;;5124148;27;20099;-73
2023/12/01 12:21:13;;;;;;;5.55;2.72;;;;;;;;;;5122419;27;21245;-69
2023/12/01 12:23:39;;;;;;;5.28;2.70;;;;;;;;;;5119748;27;20077;-73
2023/12/01 12:26:31;;;;;;;7.10;2.67;;;;;;;;;;5101565;28;20393;-73
2023/12/01 12:29:02;;;;;;;6.85;2.50;;;;;;;;;;5100846;28;20100;-74
2023/12/01 12:31:32;;;;;;;4.55;2.20;;;;;;;;;;5119098;27;20377;-75
2023/12/01 12:33:58;;;;;;;5.35;2.40;;;;;;;;;;5122315;27;20027;-73
2023/12/01 12:36:27;;;;;;;3.72;2.38;;;;;;;;;;5103822;27;20111;-74
2023/12/01 12:38:53;;;;;;;4.30;2.33;;;;;;;;;;5123622;27;20042;-69
2023/12/01 12:41:26;;;;;;;6.82;3.05;;;;;;;;;;5121982;27;20060;-69
2023/12/01 12:43:57;;;;;;;6.50;2.75;;;;;;;16.36;nan;99014.84;5124776;27;20034;-69
2023/12/01 12:46:23;;;;;;;8.45;2.58;;;;;;;;;;5125303;27;20034;-69
2023/12/01 12:48:48;;;;;;;4.72;2.60;;;;;;;;;;5123690;27;20024;-73
2023/12/01 12:51:15;;;;;;;4.97;2.40;;;;;;;;;;5106870;28;20117;-73
2023/12/01 12:53:41;;;;;;;6.03;2.33;;;;;;;;;;5106049;28;20030;-74
2023/12/01 12:56:11;;;;;;;4.03;2.30;;;;;;;;;;5123773;27;20023;-74
2023/12/01 12:58:36;;;;;;;4.32;2.47;;;;;;;;;;5129411;27;20380;-72
2023/12/01 13:01:02;;;;;;;8.35;2.80;;;;;;;;;;5123631;27;20024;-73
2023/12/01 13:03:27;;;;;;;5.30;2.25;;;;;;;;;;5103210;27;20042;-73
2023/12/01 13:05:52;;;;;;;9.10;2.65;;;;;;;;;;5105434;27;20464;-68
2023/12/01 13:08:18;;;;;;;3.80;2.57;;;;;;;;;;5127546;28;20473;-68
2023/12/01 13:10:43;;;;;;;7.68;2.40;;;;;;;;;;5124446;27;20279;-70
2023/12/01 13:13:09;;;;;;;6.18;2.35;;;;;;;;;;5127915;27;20036;-68
2023/12/01 13:15:35;;;;;;;6.63;3.20;;;;;;;;;;5125591;27;20036;-68
2023/12/01 13:18:01;;;;;;;6.38;2.42;;;;;;;;;;5106856;28;20154;-69
2023/12/01 13:20:27;;;;;;;5.15;2.72;;;;;;;;;;5123278;27;20027;-67
2023/12/01 13:22:52;;;;;;;8.65;3.20;;;;;;;;;;5127539;27;20046;-69
2023/12/01 13:25:17;;;;;;;5.38;2.20;;;;;;;;;;5130989;27;20122;-67
2023/12/01 13:27:43;;;;;;;6.77;2.47;;;;;;;;;;5133677;27;20102;-72
2023/12/01 13:30:09;;;;;;;4.97;2.30;;;;;;;;;;5132021;27;20267;-73
2023/12/01 13:32:34;;;;;;;8.93;2.67;;;;;;;;;;5132761;27;20109;-73
2023/12/01 13:34:59;;;;;;;5.83;2.67;;;;;;;;;;5115494;27;20031;-75
2023/12/01 13:37:24;;;;;;;6.87;2.37;;;;;;;;;;5137121;27;20328;-75
2023/12/01 13:39:50;;;;;;;4.67;2.30;;;;;;;;;;5114916;27;20559;-73
2023/12/01 13:42:15;;;;;;;7.25;2.47;;;;;;;;;;5126903;27;20035;-74
2023/12/01 13:44:41;;;;;;;6.85;2.67;;;;;;;;;;5127960;27;20058;-74
2023/12/01 13:47:06;;;;;;;8.45;2.28;;;;;;;;;;5130462;27;20023;-74
2023/12/01 13:51:36;;;;;;;7.13;2.83;;;;;;;16.14;79.46;98981.03;5082316;27;20192;-74
2023/12/01 13:54:02;;;;;;;10.32;3.15;;;;;;;15.76;79.45;98945.94;5083477;28;20094;-74
2023/12/01 13:56:27;;;;;;;10.73;3.92;;;;;;;16.33;79.79;99016.25;5086227;28;20047;-71
2023/12/01 13:58:52;;;;;;;11.75;3.58;;;;;;;16.23;79.94;99015.66;5085606;28;20479;-71
2023/12/01 14:01:18;;;;;;;9.00;3.33;;;;;;;16.24;79.95;99015.34;5075466;28;20112;-72
2023/12/01 14:03:43;;;;;;;6.95;3.00;;;;;;;16.13;80.18;99000.69;5079057;28;20038;-71
2023/12/01 14:06:09;;;;;;;6.80;2.90;;;;;;;16.07;80.25;98997.38;5076530;28;20383;-68
2023/12/01 14:08:35;;;;;;;7.03;2.80;;;;;;;16.21;80.14;99018.63;5078205;28;20171;-71
2023/12/01 14:11:01;;;;;;;7.55;2.80;;;;;;;16.19;80.27;99028.75;5082470;28;20055;-72
2023/12/01 14:13:26;;;;;;;7.10;2.92;;;;;;;16.13;80.11;99029.91;5078853;28;20033;-67
2023/12/01 14:15:52;;;;;;;10.57;3.03;;;;;;;16.11;80.35;99027.56;5076800;28;20045;-71
2023/12/01 14:18:17;;;;;;;9.77;3.08;;;;;;;16.07;80.35;99028.44;5084999;28;20028;-71
2023/12/01 14:20:42;;;;;;;7.45;2.50;;;;;;;16.01;80.34;99016.34;5075148;28;20059;-71
2023/12/01 14:23:08;;;;;;;7.10;2.80;;;;;;;16.03;80.39;99024.81;5078031;28;20438;-71
2023/12/01 14:25:33;;;;;;;10.93;3.58;;;;;;;16.05;80.20;99028.72;5077992;28;20028;-71
2023/12/01 14:27:59;;;;;;;7.40;3.17;;;;;;;15.92;80.13;99017.03;5079871;28;20023;-71